Главная страница
METAR-TAF:

METAR-TAF

Аэропорты :

Shingle Point, Юкон, Канада

широта: 68-57N, долгота: 137-13W, высота над уровнем моря: 56 м

Текущие метеонаблюдения

Эта сводка был подготовлена 11 минут назад, в 03:00 UTC
Ветер 7 Узел от северный, изменяющийся между северо-западный и северо-северо-восточный
Температура -3°C
Влажность 86%
Давление 1015 hPa
Сплошная облачность на высоте 900 фута

METAR: CYUA 270300Z AUTO 35007KT 310V020 ////SM //// OVC009 M03/M05 A2998

Время: 20:11 (03:11 UTC)


TAF: отсутствует

Метеонаблюдения и прогнозы для более 4000 аэропортов (сводки METAR и TAF).

Имеющиеся станции представлены на карте желтыми и красными точками.

Чтобы увидеть название станции, наведите на нее мышь.

Затем щелкните, чтобы увидеть метеонаблюдения и метеопрогнозы.

Управление картой: чтобы увеличить масштаб, щелкните зеленые кнопки с черным крестиком; чтобы уменьшить масштаб, щелкните зеленую кнопку с тире; для просмотра соседних карт щелкайте зеленые стрелки.


METAR-TAF: